Time;durP1;ratioP1;P1;durP2;ratioP2;P2;SDS_P1;SDS_P2;PMS_P1;PMS_P2;Temp;Humidity;BMP_temperature;BMP_pressure;BME280_temperature;BME280_humidity;BME280_pressure;Samples;Min_cycle;Max_cycle;Signal;HPM_P1;HPM_P2
2022/12/23 13:31:45;;;;;;;3.80;1.63;;;;;;;12.29;96.27;98814.72;1077613;39;20395;31
2022/12/23 13:33:19;;;;;;;4.40;2.15;;;;;;;12.38;96.06;98823.47;1087588;54;20039;-78
2022/12/23 13:42:45;;;;;;;3.90;2.20;;;;;;;12.49;95.42;98825.69;1088163;31;20600;-78
2022/12/23 13:43:53;;;;;;;5.18;2.10;;;;;;;12.50;95.93;98815.81;1087286;54;20031;-78
2022/12/23 13:45:37;;;;;;;3.90;1.90;;;;;;;12.54;95.76;98812.56;1087191;54;20031;-77
2022/12/23 13:54:11;;;;;;;4.15;2.22;;;;;;;12.58;95.64;98797.75;1086891;54;20098;-77
2022/12/23 14:01:36;;;;;;;4.88;2.83;;;;;;;12.50;97.43;98799.72;1086777;54;20037;-79
2022/12/23 14:02:41;;;;;;;5.90;3.38;;;;;;;12.39;97.86;98799.19;1085335;54;20065;-78
2022/12/23 14:03:46;;;;;;;4.97;3.00;;;;;;;12.51;97.08;98786.13;1084479;54;20065;-79
2022/12/23 14:05:05;;;;;;;5.28;2.92;;;;;;;12.50;97.43;98779.09;1085657;54;20046;-78
2022/12/23 14:06:43;;;;;;;5.47;3.42;;;;;;;12.41;98.56;98790.94;1086145;54;20046;-77
2022/12/23 14:07:47;;;;;;;4.68;2.78;;;;;;;12.44;98.33;98790.56;1084838;46;20042;-77
2022/12/23 14:08:53;;;;;;;4.82;2.58;;;;;;;12.46;98.79;98784.00;1084586;54;20038;-78
2022/12/23 14:09:58;;;;;;;5.40;3.08;;;;;;;12.47;98.06;98777.63;1084371;54;20136;-79
2022/12/23 14:11:05;;;;;;;4.53;2.53;;;;;;;12.56;98.14;98775.69;1083975;54;20054;-77
2022/12/23 14:12:23;;;;;;;4.88;2.38;;;;;;;12.67;97.36;98771.66;1083971;54;20138;-79
2022/12/23 14:13:28;;;;;;;4.72;2.85;;;;;;;12.62;97.43;98772.22;1084584;54;20069;-78
2022/12/23 14:14:32;;;;;;;4.82;2.67;;;;;;;12.72;96.99;98771.09;1085403;46;20086;-79
2022/12/23 14:15:47;;;;;;;4.28;2.50;;;;;;;12.77;96.37;98769.50;1084793;54;20194;-79
2022/12/23 14:17:05;;;;;;;5.07;2.58;;;;;;;12.74;96.38;98769.06;1084608;54;20027;-78
2022/12/23 14:18:20;;;;;;;4.55;2.38;;;;;;;12.58;97.21;98764.75;1083680;54;20031;-78
2022/12/23 14:19:53;;;;;;;6.10;2.78;;;;;;;12.47;98.72;98766.91;1083507;54;20046;-78
2022/12/23 14:21:05;;;;;;;5.32;2.22;;;;;;;12.60;98.12;98768.91;1084747;54;20068;-80
2022/12/23 14:22:25;;;;;;;4.53;2.38;;;;;;;12.69;97.29;98766.94;1084459;54;20082;-79
2022/12/23 14:23:46;;;;;;;4.60;2.17;;;;;;;12.71;97.06;98764.06;1083121;54;20134;-77
2022/12/23 14:26:08;;;;;;;5.22;2.47;;;;;;;12.57;97.40;98763.09;1083103;54;20042;-78
2022/12/23 14:27:43;;;;;;;5.50;2.40;;;;;;;12.53;98.39;98762.63;1083570;54;20138;-78
2022/12/23 14:28:58;;;;;;;5.07;2.47;;;;;;;12.68;97.60;98759.06;1083287;54;20090;-77
2022/12/23 14:30:10;;;;;;;4.00;2.20;;;;;;;12.67;97.14;98755.56;1083335;54;20042;-78
2022/12/23 14:31:31;;;;;;;4.53;2.38;;;;;;;12.68;97.28;98759.06;1082765;54;20059;-77
2022/12/23 14:32:42;;;;;;;4.50;2.60;;;;;;;12.67;97.41;98763.63;1082977;39;20476;-76
2022/12/23 14:33:50;;;;;;;5.30;3.10;;;;;;;12.64;97.72;98764.00;1082376;54;20153;-76
2022/12/23 14:35:15;;;;;;;5.28;2.92;;;;;;;12.66;97.24;98763.81;1082635;46;20062;-76
2022/12/23 14:36:24;;;;;;;4.90;2.70;;;;;;;12.56;98.16;98766.78;1082678;54;20043;-77
2022/12/23 14:37:35;;;;;;;5.43;2.53;;;;;;;12.55;98.73;98765.13;1083428;54;20038;-76
2022/12/23 14:38:42;;;;;;;5.10;2.53;;;;;;;12.55;98.60;98765.97;1083123;54;20270;-77
2022/12/23 14:39:43;;;;;;;4.95;2.78;;;;;;;12.59;98.61;98769.09;1083371;54;20038;-77
2022/12/23 14:40:53;;;;;;;4.78;2.50;;;;;;;12.64;98.17;98764.84;1083447;54;20050;-79
2022/12/23 14:41:58;;;;;;;4.75;2.25;;;;;;;12.60;98.45;98768.91;1083431;54;20620;-77
2022/12/23 14:43:24;;;;;;;5.20;2.35;;;;;;;12.66;97.42;98771.88;1083425;54;20068;-76
2022/12/23 14:44:45;;;;;;;5.20;2.78;;;;;;;12.52;99.08;98770.84;1083735;47;20082;-77
2022/12/23 14:45:48;;;;;;;5.78;2.60;;;;;;;12.49;99.14;98769.38;1083580;47;20042;-77
2022/12/23 14:46:59;;;;;;;4.13;2.20;;;;;;;12.55;99.20;98770.50;1083503;54;20038;-76
2022/12/23 14:48:01;;;;;;;5.70;2.75;;;;;;;12.49;99.02;98761.34;1083008;54;20061;-76
2022/12/23 14:49:24;;;;;;;6.45;2.95;;;;;;;12.47;99.56;98763.38;1082603;54;20046;-76
2022/12/23 14:50:43;;;;;;;6.22;2.63;;;;;;;12.50;99.39;98757.66;1082513;54;20141;-76
2022/12/23 14:51:49;;;;;;;7.22;2.97;;;;;;;12.49;99.34;98753.31;1082494;54;20061;-77
2022/12/23 14:53:01;;;;;;;5.57;2.67;;;;;;;12.58;99.17;98756.72;1082915;39;20352;-76
2022/12/23 14:54:19;;;;;;;5.60;2.85;;;;;;;12.46;99.57;98756.38;1082855;54;20592;-76
2022/12/23 14:55:39;;;;;;;5.13;2.90;;;;;;;12.48;99.35;98755.16;1082502;54;20069;-77
2022/12/23 14:56:57;;;;;;;5.18;2.65;;;;;;;12.41;99.77;98759.63;1082190;54;20061;-75
2022/12/23 14:58:08;;;;;;;6.30;2.90;;;;;;;12.39;100.00;98758.13;1082899;54;20668;-76
2022/12/23 14:59:20;;;;;;;5.20;2.70;;;;;;;12.47;100.00;98758.00;1082651;54;20038;-77
2022/12/23 15:00:21;;;;;;;5.07;3.03;;;;;;;12.36;100.00;98755.84;1083224;39;20445;-76
2022/12/23 15:01:33;;;;;;;5.30;2.65;;;;;;;12.51;100.00;98755.81;1083423;54;20050;-76
2022/12/23 15:02:37;;;;;;;5.45;2.95;;;;;;;12.43;99.73;98754.88;1087248;54;20039;-78
2022/12/23 15:03:46;;;;;;;4.97;2.80;;;;;;;12.46;100.00;98748.34;1087128;54;20034;-76
2022/12/23 15:04:53;;;;;;;5.95;3.00;;;;;;;12.55;99.67;98755.25;1087019;54;20042;-77
2022/12/23 15:05:58;;;;;;;6.68;3.15;;;;;;;12.47;99.98;98753.50;1086982;54;20053;-76
2022/12/23 15:07:07;;;;;;;5.78;2.83;;;;;;;12.43;100.00;98751.38;1087219;54;20042;-77
2022/12/23 15:08:23;;;;;;;5.07;2.80;;;;;;;12.41;100.00;98756.09;1087165;54;20070;-76
2022/12/23 15:09:32;;;;;;;5.25;2.95;;;;;;;12.45;100.00;98750.19;1085635;54;20042;-76
2022/12/23 15:10:36;;;;;;;4.50;2.70;;;;;;;12.48;99.92;98759.69;1082470;54;20065;-76
2022/12/23 15:11:42;;;;;;;5.57;2.45;;;;;;;12.43;100.00;98754.06;1082500;54;20042;-76
2022/12/23 15:12:49;;;;;;;7.07;2.63;;;;;;;12.42;100.00;98761.25;1082785;46;20027;-76
2022/12/23 15:13:53;;;;;;;4.95;2.65;;;;;;;12.45;100.00;98752.84;1082120;54;20038;-75
2022/12/23 15:14:59;;;;;;;4.18;2.17;;;;;;;12.57;100.00;98753.19;1082439;54;20066;-76
2022/12/23 15:16:01;;;;;;;4.80;2.35;;;;;;;12.54;100.00;98752.75;1082544;54;20034;-76
2022/12/23 15:17:17;;;;;;;4.85;2.33;;;;;;;12.54;100.00;98758.94;1082539;54;20050;-76
2022/12/23 15:18:18;;;;;;;4.55;2.45;;;;;;;12.52;100.00;98754.78;1082255;54;20058;-75
2022/12/23 15:19:25;;;;;;;4.10;2.03;;;;;;;12.47;100.00;98760.69;1082443;54;20098;-76
2022/12/23 15:20:27;;;;;;;4.30;2.20;;;;;;;12.57;100.00;98765.78;1082350;54;20042;-75
2022/12/23 15:21:35;;;;;;;3.78;2.08;;;;;;;12.56;100.00;98770.31;1082518;54;20058;-75
2022/12/23 15:22:37;;;;;;;4.60;1.98;;;;;;;12.65;100.00;98768.34;1082285;54;20062;-75
2022/12/23 15:23:50;;;;;;;4.45;2.60;;;;;;;12.58;100.00;98770.13;1082161;54;20058;-75
2022/12/23 15:24:57;;;;;;;5.47;2.03;;;;;;;12.58;100.00;98770.13;1082420;54;20914;-76
2022/12/23 15:26:02;;;;;;;5.00;1.83;;;;;;;12.49;100.00;98772.06;1082260;54;20042;-75
2022/12/23 15:27:07;;;;;;;4.97;2.00;;;;;;;12.55;100.00;98770.50;1082528;54;20575;-75
2022/12/23 15:28:15;;;;;;;4.35;2.20;;;;;;;12.63;100.00;98763.16;1082261;54;20038;-75
2022/12/23 15:29:21;;;;;;;5.07;2.22;;;;;;;12.58;100.00;98762.88;1082295;54;20038;-75
2022/12/23 15:30:26;;;;;;;6.80;2.10;;;;;;;12.58;100.00;98764.75;1081959;54;20066;-76
2022/12/23 15:31:31;;;;;;;4.32;2.08;;;;;;;12.62;100.00;98766.03;1082198;54;20042;-75
2022/12/23 15:32:36;;;;;;;3.88;1.95;;;;;;;12.56;100.00;98769.47;1082325;54;20038;-76
2022/12/23 15:33:37;;;;;;;5.47;2.17;;;;;;;12.63;100.00;98773.91;1082007;54;20141;-76
2022/12/23 15:34:43;;;;;;;3.75;1.67;;;;;;;12.64;100.00;98764.84;1082379;54;20050;-75
2022/12/23 15:35:44;;;;;;;4.45;2.25;;;;;;;12.65;100.00;98765.66;1082567;54;20153;-75
2022/12/23 15:36:53;;;;;;;4.18;1.75;;;;;;;12.67;100.00;98768.13;1082400;54;20038;-76
2022/12/23 15:37:58;;;;;;;4.82;2.15;;;;;;;12.67;100.00;98766.31;1082674;39;20667;-76
2022/12/23 15:39:02;;;;;;;4.07;2.08;;;;;;;12.70;100.00;98767.75;1082478;54;20162;-76
2022/12/23 15:40:25;;;;;;;6.18;1.70;;;;;;;12.74;99.90;98780.59;1082243;54;20034;-75
2022/12/23 15:41:30;;;;;;;5.00;2.25;;;;;;;12.75;99.78;98771.53;1082312;54;20038;-76
2022/12/23 15:42:34;;;;;;;4.25;1.95;;;;;;;12.71;99.58;98774.78;1082474;54;20057;-75
2022/12/23 15:43:43;;;;;;;4.45;2.03;;;;;;;12.82;99.37;98774.31;1082338;54;20038;-75
2022/12/23 15:44:47;;;;;;;6.82;2.90;;;;;;;12.75;99.41;98770.72;1081850;54;20133;-75
2022/12/23 15:45:49;;;;;;;5.70;3.25;;;;;;;12.77;99.49;98774.03;1082403;47;20027;-75
2022/12/23 15:46:54;;;;;;;6.05;3.55;;;;;;;12.88;98.73;98765.47;1082669;39;20681;-75
2022/12/23 15:47:56;;;;;;;11.43;6.32;;;;;;;12.81;98.53;98775.31;1082168;54;20130;-75
2022/12/23 15:49:00;;;;;;;12.10;7.70;;;;;;;12.75;98.55;98776.91;1082328;54;20603;-74
2022/12/23 15:50:10;;;;;;;9.55;6.20;;;;;;;12.92;97.76;98777.50;1082844;39;20660;-76
2022/12/23 15:51:18;;;;;;;9.05;5.18;;;;;;;12.79;98.38;98772.84;1082367;54;20160;-75
2022/12/23 15:52:22;;;;;;;6.60;3.90;;;;;;;12.75;97.65;98778.78;1082119;54;20611;-74
2022/12/23 15:53:29;;;;;;;8.32;4.10;;;;;;;12.79;97.25;98783.56;1082287;54;20110;-76
2022/12/23 15:54:36;;;;;;;7.40;3.97;;;;;;;12.85;96.28;98786.50;1082472;54;21137;-76
